createdAt,value
2022-11-21T00:01:05.905Z,22.3
2022-11-21T00:06:27.718Z,22.2
2022-11-21T00:12:04.363Z,22.1
2022-11-21T00:17:47.514Z,21.9
2022-11-21T00:22:53.519Z,22.6
2022-11-21T00:28:35.159Z,23.3
2022-11-21T00:34:11.917Z,22.9
2022-11-21T00:39:33.501Z,22.7
2022-11-21T00:45:11.134Z,22.5
2022-11-21T00:50:32.268Z,22.4
2022-11-21T00:55:37.996Z,22.2
2022-11-21T01:00:59.920Z,22.1
2022-11-21T01:06:21.851Z,22.7
2022-11-21T01:11:27.528Z,23.3
2022-11-21T01:16:50.221Z,23.1
2022-11-21T01:22:27.589Z,22.6
2022-11-21T01:28:04.820Z,22.4
2022-11-21T01:33:42.738Z,22.4
2022-11-21T01:39:05.336Z,22.3
2022-11-21T01:44:27.472Z,22.1
2022-11-21T01:50:09.247Z,22.6
2022-11-21T01:55:35.469Z,23.4
2022-11-21T02:00:42.261Z,23
2022-11-21T02:06:20.826Z,22.7
2022-11-21T02:11:27.644Z,22.5
2022-11-21T02:16:34.689Z,22.4
2022-11-21T02:21:57.278Z,22.3
2022-11-21T02:27:09.609Z,22.2
2022-11-21T02:32:15.639Z,22.1
2022-11-21T02:37:37.813Z,22.9
2022-11-21T02:43:00.887Z,23.4
2022-11-21T02:48:38.761Z,22.8
2022-11-21T02:54:16.719Z,22.5
2022-11-21T03:00:00.897Z,22.5
2022-11-21T03:05:22.862Z,22.4
2022-11-21T03:11:01.319Z,22.3
2022-11-21T03:16:39.187Z,22.2
2022-11-21T03:22:00.776Z,22.9
2022-11-21T03:27:38.587Z,23.4
2022-11-21T03:33:16.281Z,23.1
2022-11-21T03:38:54.185Z,22.8
2022-11-21T03:44:32.786Z,22.7
2022-11-21T03:49:55.129Z,22.5
2022-11-21T03:55:17.106Z,22.4
2022-11-21T04:00:55.178Z,22.3
2022-11-21T04:06:38.877Z,22.9
2022-11-21T04:12:16.722Z,23.6
2022-11-21T04:17:59.947Z,23
2022-11-21T04:23:37.932Z,22.8
2022-11-21T04:29:14.536Z,22.6
2022-11-21T04:34:38.096Z,22.6
2022-11-21T04:40:00.520Z,22.4
2022-11-21T04:45:21.928Z,22.3
2022-11-21T04:51:03.777Z,23.1
2022-11-21T04:56:30.847Z,23.9
2022-11-21T05:01:53.455Z,23.3
2022-11-21T05:07:16.590Z,23.1
2022-11-21T05:12:38.539Z,22.9
2022-11-21T05:18:16.082Z,22.8
2022-11-21T05:23:41.649Z,22.3
2022-11-21T05:29:03.383Z,22.2
2022-11-21T05:34:44.795Z,22.6
2022-11-21T05:40:27.683Z,23.8
2022-11-21T05:46:05.408Z,23.4
2022-11-21T05:51:11.982Z,22.8
2022-11-21T05:56:38.968Z,22.6
2022-11-21T06:02:21.987Z,22.4
2022-11-21T06:07:48.620Z,22.2
2022-11-21T06:13:15.664Z,22.1
2022-11-21T06:18:37.880Z,22.6
2022-11-21T06:24:04.876Z,23.7
2022-11-21T06:29:44.143Z,23.6
2022-11-21T06:35:26.998Z,22.9
2022-11-21T06:40:55.403Z,22.6
2022-11-21T06:46:33.860Z,22.4
2022-11-21T06:51:57.082Z,22.3
2022-11-21T06:57:37.180Z,22.1
2022-11-21T07:03:20.175Z,21.9
2022-11-21T07:09:33.123Z,23.1
2022-11-21T07:15:39.579Z,23.8
2022-11-21T07:21:21.148Z,23.2
2022-11-21T07:27:00.475Z,22.7
2022-11-21T07:32:37.924Z,22.4
2022-11-21T07:38:00.996Z,22.3
2022-11-21T07:43:44.692Z,22.1
2022-11-21T07:49:06.566Z,22.2
2022-11-21T07:54:44.673Z,23.1
2022-11-21T08:00:12.488Z,24.1
2022-11-21T08:05:51.791Z,23.3
2022-11-21T08:11:36.360Z,22.9
2022-11-21T08:17:13.913Z,22.6
2022-11-21T08:22:57.104Z,22.3
2022-11-21T08:28:35.295Z,22.1
2022-11-21T08:34:20.030Z,22
2022-11-21T08:39:57.943Z,22.4
2022-11-21T08:45:33.335Z,23.5
2022-11-21T08:51:16.206Z,23.8
2022-11-21T08:56:55.145Z,23.1
2022-11-21T09:02:33.260Z,22.8
2022-11-21T09:08:18.082Z,22.5
2022-11-21T09:13:42.545Z,22.3
2022-11-21T09:19:29.074Z,22.1
2022-11-21T09:25:08.854Z,22.4
2022-11-21T09:30:46.271Z,23.6
2022-11-21T09:36:25.617Z,23.9
2022-11-21T09:42:05.787Z,23.2
2022-11-21T09:47:43.738Z,22.8
2022-11-21T09:53:24.120Z,22.6
2022-11-21T09:59:02.323Z,22.4
2022-11-21T10:04:47.131Z,22.2
2022-11-21T10:10:26.632Z,22.4
2022-11-21T10:16:08.011Z,23.6
2022-11-21T10:21:47.700Z,24.1
2022-11-21T10:27:26.283Z,23.3
2022-11-21T10:33:05.061Z,22.8
2022-11-21T10:38:47.863Z,22.6
2022-11-21T10:44:26.196Z,22.4
2022-11-21T10:49:48.993Z,22.2
2022-11-21T10:55:31.517Z,22.4
2022-11-21T11:01:11.637Z,23.6
2022-11-21T11:07:17.862Z,24.2
2022-11-21T11:13:01.606Z,23.4
2022-11-21T11:18:59.797Z,22.9
2022-11-21T11:24:44.596Z,22.6
2022-11-21T11:30:08.545Z,22.4
2022-11-21T11:35:31.600Z,22.3
2022-11-21T11:40:56.177Z,22.5
2022-11-21T11:46:34.665Z,23.7
2022-11-21T11:52:43.053Z,24.3
2022-11-21T11:58:21.217Z,23.3
2022-11-21T12:04:09.576Z,22.9
2022-11-21T12:11:25.423Z,22.6
2022-11-21T12:17:11.054Z,22.4
2022-11-21T12:22:50.377Z,22.3
2022-11-21T12:28:30.060Z,23.1
2022-11-21T12:34:14.890Z,24.1
2022-11-21T12:40:05.720Z,23.8
2022-11-21T12:45:48.889Z,23.1
2022-11-21T12:51:17.584Z,22.8
2022-11-21T12:56:58.763Z,22.6
2022-11-21T13:02:28.739Z,22.3
2022-11-21T13:08:07.328Z,22.4
2022-11-21T13:13:47.141Z,23.6
2022-11-21T13:19:25.349Z,23.9
2022-11-21T13:25:04.874Z,23.2
2022-11-21T13:30:27.279Z,22.6
2022-11-21T13:36:08.269Z,22.4
2022-11-21T13:41:46.066Z,22.3
2022-11-21T13:48:09.927Z,22.2
2022-11-21T13:53:51.115Z,22.1
2022-11-21T13:59:34.623Z,21.9
2022-11-21T14:05:12.955Z,22.6
2022-11-21T14:10:53.260Z,23.9
2022-11-21T14:16:34.585Z,24
2022-11-21T14:22:12.526Z,23.2
2022-11-21T14:28:02.733Z,22.7
2022-11-21T14:33:45.047Z,22.4
2022-11-21T14:40:01.479Z,22.2
2022-11-21T14:45:40.516Z,22
2022-11-21T14:51:14.249Z,21.9
2022-11-21T14:57:25.373Z,21.8
2022-11-21T15:03:31.775Z,23.3
2022-11-21T15:11:08.622Z,24.9
2022-11-21T15:17:18.706Z,26.5
2022-11-21T15:23:32.217Z,27.4
2022-11-21T15:29:10.498Z,27.7
2022-11-21T15:35:30.623Z,27.4
2022-11-21T15:58:21.112Z,27.3
2022-11-21T16:04:00.559Z,28.1
2022-11-21T16:09:30.690Z,28.3
2022-11-21T16:15:14.362Z,28.5
2022-11-21T16:20:59.014Z,29.7
2022-11-21T16:26:43.837Z,30.8
2022-11-21T16:32:06.590Z,32.1
2022-11-21T16:37:47.094Z,33.2
2022-11-21T16:43:33.167Z,33.5
2022-11-21T16:49:00.043Z,32.5
2022-11-21T16:54:43.187Z,32.1
2022-11-21T17:00:06.054Z,31.6
2022-11-21T17:05:45.616Z,31.3
2022-11-21T17:11:24.847Z,31.1
2022-11-21T17:16:46.734Z,31.1
2022-11-21T17:22:09.807Z,30.1
2022-11-21T17:27:48.894Z,29.5
2022-11-21T17:33:32.715Z,28.7
2022-11-21T17:39:14.121Z,28.6
2022-11-21T17:44:54.080Z,27.5
2022-11-21T17:50:24.163Z,27.2
2022-11-21T17:55:47.237Z,27.1
2022-11-21T18:01:34.206Z,27.1
2022-11-21T18:07:18.919Z,27.9
2022-11-21T18:13:19.042Z,29.1
2022-11-21T18:18:50.055Z,29.9
2022-11-21T18:24:29.669Z,30.1
2022-11-21T18:30:26.168Z,30
2022-11-21T18:35:33.970Z,30.3
2022-11-21T18:41:42.419Z,30.5
2022-11-21T18:47:37.855Z,30.3
2022-11-21T18:53:37.730Z,29.7
2022-11-21T18:59:02.334Z,29.2
2022-11-21T19:04:26.314Z,29.8
2022-11-21T19:09:38.825Z,31.2
2022-11-21T19:15:49.454Z,31.9
2022-11-21T19:22:03.571Z,32.9
2022-11-21T19:27:43.651Z,32.4
2022-11-21T19:33:26.516Z,32.3
2022-11-21T19:38:51.512Z,32.3
2022-11-21T19:44:16.385Z,31.9
2022-11-21T19:49:57.413Z,32.2
2022-11-21T19:55:32.859Z,32.4
2022-11-21T20:00:58.043Z,32
2022-11-21T20:06:26.040Z,31.3
2022-11-21T20:12:11.826Z,30.5
2022-11-21T20:17:36.512Z,29.8
2022-11-21T20:23:16.091Z,29.4
2022-11-21T20:29:02.658Z,29.9
2022-11-21T20:35:34.667Z,30.3
2022-11-21T20:41:12.929Z,30.4
2022-11-21T20:49:00.202Z,30.1
2022-11-21T20:57:35.317Z,30.4
2022-11-21T21:03:15.040Z,29.9
2022-11-21T21:08:38.369Z,30.9
2022-11-21T21:15:18.063Z,30.7
2022-11-21T21:21:09.697Z,30.1
2022-11-21T21:26:59.486Z,29.7
2022-11-21T21:32:43.509Z,28.8
2022-11-21T21:38:26.026Z,27.7
2022-11-21T21:44:03.971Z,27.3
2022-11-21T21:49:43.198Z,27.4
2022-11-21T21:55:21.794Z,27.3
2022-11-21T22:01:06.109Z,27.5
2022-11-21T22:11:55.698Z,27.9
2022-11-21T22:17:33.179Z,27.8
2022-11-21T22:23:00.333Z,27.3
2022-11-21T22:28:52.680Z,27.1
2022-11-21T22:34:33.285Z,26.3
2022-11-21T22:39:56.047Z,25.9
2022-11-21T22:45:40.023Z,26.9
2022-11-21T22:51:03.000Z,26.6
2022-11-21T22:56:44.518Z,26.1
2022-11-21T23:02:22.449Z,25.6
2022-11-21T23:08:00.779Z,25.2
2022-11-21T23:13:24.001Z,25.1
2022-11-21T23:18:31.697Z,25
2022-11-21T23:23:53.644Z,24.9
2022-11-21T23:29:32.143Z,24.8
2022-11-21T23:34:54.325Z,24.8
2022-11-21T23:40:31.249Z,24.7
2022-11-21T23:46:09.695Z,24.6
2022-11-21T23:51:31.820Z,24.4
2022-11-21T23:56:54.535Z,24.3
